createdAt,value
2023-04-08T00:00:18.131Z,101592.06
2023-04-08T00:00:39.833Z,101580.56
2023-04-08T00:01:02.417Z,101581.47
2023-04-08T00:01:24.468Z,101585.00
2023-04-08T00:01:46.234Z,101571.81
2023-04-08T00:02:07.991Z,101573.56
2023-04-08T00:02:30.782Z,101582.31
2023-04-08T00:02:52.772Z,101582.34
2023-04-08T00:03:14.555Z,101586.75
2023-04-08T00:03:37.971Z,101578.88
2023-04-08T00:04:00.843Z,101556.97
2023-04-08T00:04:22.767Z,101582.34
2023-04-08T00:04:44.431Z,101582.31
2023-04-08T00:05:06.677Z,101578.84
2023-04-08T00:05:29.462Z,101582.34
2023-04-08T00:05:51.055Z,101580.56
2023-04-08T00:06:12.727Z,101566.69
2023-04-08T00:06:34.367Z,101583.34
2023-04-08T00:06:57.659Z,101582.44
2023-04-08T00:07:19.261Z,101586.88
2023-04-08T00:07:40.934Z,101577.03
2023-04-08T00:08:02.548Z,101576.25
2023-04-08T00:08:25.144Z,101586.72
2023-04-08T00:08:46.773Z,101572.69
2023-04-08T00:09:08.437Z,101584.00
2023-04-08T00:09:30.252Z,101578.69
2023-04-08T00:09:52.051Z,101586.66
2023-04-08T00:10:14.659Z,101580.47
2023-04-08T00:10:36.584Z,101576.13
2023-04-08T00:10:58.231Z,101582.31
2023-04-08T00:11:20.074Z,101582.34
2023-04-08T00:11:43.339Z,101594.72
2023-04-08T00:12:05.355Z,101583.25
2023-04-08T00:12:27.093Z,101592.97
2023-04-08T00:12:48.745Z,101592.09
2023-04-08T00:13:11.677Z,101592.97
2023-04-08T00:13:33.617Z,101589.41
2023-04-08T00:13:55.280Z,101580.53
2023-04-08T00:14:16.905Z,101590.28
2023-04-08T00:14:41.410Z,101591.13
2023-04-08T00:15:03.150Z,101584.13
2023-04-08T00:15:24.817Z,101595.63
2023-04-08T00:15:46.732Z,101589.41
2023-04-08T00:16:09.762Z,101589.31
2023-04-08T00:16:31.469Z,101592.94
2023-04-08T00:16:53.201Z,101595.59
2023-04-08T00:17:15.001Z,101586.72
2023-04-08T00:17:37.859Z,101580.63
2023-04-08T00:17:59.590Z,101589.41
2023-04-08T00:18:21.248Z,101579.66
2023-04-08T00:18:45.000Z,101587.66
2023-04-08T00:19:07.980Z,101582.34
2023-04-08T00:19:29.652Z,101582.34
2023-04-08T00:19:51.829Z,101584.13
2023-04-08T00:20:13.625Z,101591.28
2023-04-08T00:20:35.437Z,101586.78
2023-04-08T00:20:58.207Z,101589.50
2023-04-08T00:21:20.815Z,101583.31
2023-04-08T00:21:42.581Z,101551.84
2023-04-08T00:22:05.298Z,101586.03
2023-04-08T00:22:27.053Z,101587.81
2023-04-08T00:22:48.722Z,101589.56
2023-04-08T00:23:10.405Z,101589.56
2023-04-08T00:23:33.178Z,101585.13
2023-04-08T00:23:54.837Z,101579.94
2023-04-08T00:24:16.596Z,101587.03
2023-04-08T00:24:38.290Z,101591.34
2023-04-08T00:25:01.805Z,101588.75
2023-04-08T00:25:25.358Z,101579.13
2023-04-08T00:25:47.524Z,101591.41
2023-04-08T00:26:09.131Z,101584.31
2023-04-08T00:26:32.314Z,101586.03
2023-04-08T00:26:54.083Z,101586.09
2023-04-08T00:27:16.232Z,101581.59
2023-04-08T00:27:37.923Z,101590.47
2023-04-08T00:27:59.633Z,101589.56
2023-04-08T00:28:22.253Z,101586.88
2023-04-08T00:28:43.966Z,101586.88
2023-04-08T00:29:05.727Z,101593.09
2023-04-08T00:29:27.354Z,101586.09
2023-04-08T00:29:49.300Z,101589.66
2023-04-08T00:30:12.665Z,101594.09
2023-04-08T00:30:34.343Z,101585.31
2023-04-08T00:30:58.220Z,101585.22
2023-04-08T00:31:20.063Z,101587.91
2023-04-08T00:32:26.702Z,101587.88
2023-04-08T00:32:48.510Z,101587.91
2023-04-08T00:33:10.419Z,101583.56
2023-04-08T00:33:34.674Z,101596.78
2023-04-08T00:33:57.916Z,101592.34
2023-04-08T00:34:19.651Z,101590.53
2023-04-08T00:34:41.980Z,101596.72
2023-04-08T00:35:05.130Z,101591.41
2023-04-08T00:35:28.020Z,101581.72
2023-04-08T00:35:49.759Z,101588.75
2023-04-08T00:36:11.556Z,101587.81
2023-04-08T00:36:34.615Z,101591.31
2023-04-08T00:36:56.696Z,101592.19
2023-04-08T00:37:18.524Z,101596.66
2023-04-08T00:37:41.395Z,101594.84
2023-04-08T00:38:07.875Z,101593.06
2023-04-08T00:38:29.504Z,101591.22
2023-04-08T00:38:51.256Z,101592.19
2023-04-08T00:39:13.510Z,101597.53
2023-04-08T00:39:36.444Z,101581.66
2023-04-08T00:39:58.189Z,101595.78
2023-04-08T00:40:19.860Z,101591.31
2023-04-08T00:40:41.671Z,101586.91
2023-04-08T00:41:04.308Z,101598.41
2023-04-08T00:41:25.922Z,101595.75
2023-04-08T00:41:47.586Z,101588.69
2023-04-08T00:42:09.703Z,101596.66
2023-04-08T00:42:32.298Z,101597.56
2023-04-08T00:42:53.983Z,101594.06
2023-04-08T00:43:16.597Z,101597.56
2023-04-08T00:43:38.196Z,101598.53
2023-04-08T00:43:59.858Z,101598.50
2023-04-08T00:44:22.873Z,101595.84
2023-04-08T00:44:44.554Z,101593.22
2023-04-08T00:45:07.448Z,101597.66
2023-04-08T00:45:29.118Z,101587.00
2023-04-08T00:45:51.050Z,101594.13
2023-04-08T00:46:13.807Z,101587.97
2023-04-08T00:46:38.523Z,101600.34
2023-04-08T00:47:00.471Z,101599.44
2023-04-08T00:47:22.259Z,101586.28
2023-04-08T00:47:45.085Z,101600.31
2023-04-08T00:48:07.042Z,101591.47
2023-04-08T00:48:29.767Z,101593.25
2023-04-08T00:48:51.627Z,101592.38
2023-04-08T00:49:16.065Z,101595.00
2023-04-08T00:49:37.707Z,101590.66
2023-04-08T00:49:59.507Z,101593.31
2023-04-08T00:50:21.564Z,101591.56
2023-04-08T00:50:44.861Z,101592.53
2023-04-08T00:51:07.090Z,101597.75
2023-04-08T00:51:28.963Z,101596.00
2023-04-08T00:51:50.740Z,101592.44
2023-04-08T00:52:12.414Z,101586.16
2023-04-08T00:52:35.649Z,101594.22
2023-04-08T00:52:57.296Z,101596.81
2023-04-08T00:53:19.898Z,101587.97
2023-04-08T00:53:42.637Z,101592.44
2023-04-08T00:54:05.273Z,101595.97
2023-04-08T00:54:27.177Z,101603.88
2023-04-08T00:54:48.946Z,101595.88
2023-04-08T00:55:11.586Z,101584.56
2023-04-08T00:55:33.193Z,101593.25
2023-04-08T00:55:54.823Z,101592.34
2023-04-08T00:56:16.887Z,101594.97
2023-04-08T00:56:39.792Z,101593.22
2023-04-08T00:57:01.459Z,101595.91
2023-04-08T00:57:23.167Z,101603.88
2023-04-08T00:57:45.589Z,101592.38
2023-04-08T00:58:09.116Z,101588.81
2023-04-08T00:58:31.010Z,101592.34
2023-04-08T00:58:55.543Z,101601.22
2023-04-08T00:59:18.728Z,101603.03
2023-04-08T00:59:42.127Z,101592.44
2023-04-08T01:00:05.778Z,101583.59
2023-04-08T01:00:29.818Z,101596.78
2023-04-08T01:00:58.415Z,101592.44
2023-04-08T01:01:27.202Z,101603.09
2023-04-08T01:01:55.402Z,101588.91
2023-04-08T01:02:24.820Z,101595.19
2023-04-08T01:02:57.888Z,101593.44
2023-04-08T01:03:28.980Z,101590.78
2023-04-08T01:03:57.966Z,101595.31
2023-04-08T01:04:29.548Z,101589.13
2023-04-08T01:04:57.026Z,101597.88
2023-04-08T01:05:27.952Z,101601.41
2023-04-08T01:05:56.781Z,101601.41
2023-04-08T01:06:29.031Z,101598.75
2023-04-08T01:06:58.117Z,101604.88
2023-04-08T01:07:24.943Z,101598.75
2023-04-08T01:07:48.878Z,101599.59
2023-04-08T01:08:11.900Z,101601.34
2023-04-08T01:08:39.340Z,101597.81
2023-04-08T01:09:04.959Z,101596.03
2023-04-08T01:09:32.424Z,101600.41
2023-04-08T01:09:56.300Z,101603.09
2023-04-08T01:10:22.176Z,101601.28
2023-04-08T01:10:47.905Z,101603.97
2023-04-08T01:11:11.933Z,101604.88
2023-04-08T01:11:35.506Z,101600.44
2023-04-08T01:11:58.834Z,101599.53
2023-04-08T01:12:27.363Z,101601.34
2023-04-08T01:12:56.518Z,101588.13
2023-04-08T01:13:18.902Z,101601.22
2023-04-08T01:13:42.438Z,101603.88
2023-04-08T01:14:10.180Z,101607.38
2023-04-08T01:14:35.271Z,101598.47
2023-04-08T01:15:01.570Z,101606.41
2023-04-08T01:15:26.153Z,101594.88
2023-04-08T01:15:48.785Z,101605.53
2023-04-08T01:16:14.332Z,101597.56
2023-04-08T01:16:38.680Z,101600.31
2023-04-08T01:17:03.289Z,101602.91
2023-04-08T01:17:25.515Z,101600.31
2023-04-08T01:17:52.968Z,101603.75
2023-04-08T01:18:17.724Z,101593.25
2023-04-08T01:18:44.044Z,101597.56
2023-04-08T01:19:08.209Z,101603.78
2023-04-08T01:19:34.979Z,101595.03
2023-04-08T01:19:59.440Z,101606.50
2023-04-08T01:20:23.627Z,101595.13
2023-04-08T01:20:46.765Z,101600.34
2023-04-08T01:21:08.982Z,101548.78
2023-04-08T01:21:30.730Z,101597.63
2023-04-08T01:21:56.958Z,101596.88
2023-04-08T01:22:27.300Z,101602.13
2023-04-08T01:23:03.733Z,101598.56
2023-04-08T01:23:34.059Z,101608.31
2023-04-08T01:24:02.197Z,101596.75
2023-04-08T01:24:29.646Z,101604.78
2023-04-08T01:24:59.486Z,101585.56
2023-04-08T01:25:25.368Z,101588.94
2023-04-08T01:25:49.872Z,101598.63
2023-04-08T01:26:13.432Z,101597.75
2023-04-08T01:26:36.303Z,101599.53
2023-04-08T01:27:01.579Z,101603.97
2023-04-08T01:27:24.308Z,101601.28
2023-04-08T01:27:48.360Z,101595.97
2023-04-08T01:28:14.093Z,101597.78
2023-04-08T01:28:36.927Z,101595.97
2023-04-08T01:29:01.803Z,101597.81
2023-04-08T01:29:25.280Z,101597.81
2023-04-08T01:29:49.075Z,101599.56
2023-04-08T01:30:12.914Z,101602.19
2023-04-08T01:30:37.881Z,101589.88
2023-04-08T01:31:02.318Z,101596.94
2023-04-08T01:31:25.477Z,101598.69
2023-04-08T01:31:49.126Z,101604.88
2023-04-08T01:32:12.504Z,101596.03
2023-04-08T01:32:35.159Z,101594.28
2023-04-08T01:32:57.809Z,101596.94
2023-04-08T01:33:22.238Z,101589.94
2023-04-08T01:33:44.991Z,101597.78
2023-04-08T01:34:08.230Z,101589.03
2023-04-08T01:34:31.536Z,101594.16
2023-04-08T01:34:55.296Z,101598.69
2023-04-08T01:35:17.039Z,101602.19
2023-04-08T01:35:39.340Z,101600.41
2023-04-08T01:36:02.399Z,101594.16
2023-04-08T01:36:26.898Z,101602.13
2023-04-08T01:36:50.387Z,101595.13
2023-04-08T01:37:13.570Z,101597.78
2023-04-08T01:37:36.914Z,101590.75
2023-04-08T01:38:00.902Z,101600.44
2023-04-08T01:38:25.727Z,101606.66
2023-04-08T01:38:48.760Z,101584.69
2023-04-08T01:39:11.402Z,101600.44
2023-04-08T01:39:35.915Z,101605.78
2023-04-08T01:40:00.119Z,101588.16
2023-04-08T01:40:22.089Z,101605.69
2023-04-08T01:40:44.932Z,101605.75
2023-04-08T01:41:11.857Z,101597.88
2023-04-08T01:41:36.109Z,101606.66
2023-04-08T01:41:59.237Z,101590.03
2023-04-08T01:42:22.616Z,101599.59
2023-04-08T01:42:48.400Z,101601.41
2023-04-08T01:43:11.463Z,101601.41
2023-04-08T01:43:35.030Z,101608.53
2023-04-08T01:43:58.055Z,101595.31
2023-04-08T01:44:22.800Z,101599.75
2023-04-08T01:44:45.696Z,101597.88
2023-04-08T01:45:09.241Z,101593.50
2023-04-08T01:45:31.430Z,101599.59
2023-04-08T01:45:58.098Z,101610.22
2023-04-08T01:46:21.833Z,101603.13
2023-04-08T01:46:44.100Z,101602.22
2023-04-08T01:47:06.005Z,101613.78
2023-04-08T01:47:30.414Z,101605.84
2023-04-08T01:47:53.513Z,101610.25
2023-04-08T01:48:15.887Z,101603.13
2023-04-08T01:48:38.199Z,101607.56
2023-04-08T01:49:01.371Z,101607.56
2023-04-08T01:49:25.028Z,101606.66
2023-04-08T01:49:47.166Z,101604.88
2023-04-08T01:50:09.738Z,101602.25
2023-04-08T01:50:33.070Z,101610.22
2023-04-08T01:50:56.252Z,101604.91
2023-04-08T01:51:18.659Z,101574.22
2023-04-08T01:51:41.345Z,101611.13
2023-04-08T01:52:05.111Z,101604.00
2023-04-08T01:52:29.739Z,101604.88
2023-04-08T01:52:53.718Z,101608.44
2023-04-08T01:53:15.446Z,101605.78
2023-04-08T01:53:38.640Z,101609.28
2023-04-08T01:54:00.540Z,101601.28
2023-04-08T01:54:22.273Z,101601.22
2023-04-08T01:54:43.984Z,101605.75
2023-04-08T01:55:06.397Z,101599.47
2023-04-08T01:55:29.653Z,101602.13
2023-04-08T01:56:01.810Z,101605.69
2023-04-08T01:56:28.429Z,101606.56
2023-04-08T01:56:52.459Z,101590.81
2023-04-08T01:57:20.606Z,101603.09
2023-04-08T01:57:45.361Z,101598.78
2023-04-08T01:58:08.896Z,101603.03
2023-04-08T01:58:37.859Z,101608.41
2023-04-08T01:59:02.203Z,101607.53
2023-04-08T01:59:27.451Z,101609.28
2023-04-08T01:59:52.541Z,101597.00
2023-04-08T02:00:16.603Z,101580.31
2023-04-08T02:00:46.683Z,101609.19
2023-04-08T02:01:12.195Z,101608.34
2023-04-08T02:01:35.707Z,101606.53
2023-04-08T02:01:58.892Z,101603.00
2023-04-08T02:02:26.642Z,101605.69
2023-04-08T02:02:49.823Z,101609.28
2023-04-08T02:03:14.034Z,101611.88
2023-04-08T02:03:37.602Z,101607.44
2023-04-08T02:04:00.564Z,101612.75
2023-04-08T02:04:22.533Z,101610.13
2023-04-08T02:04:45.367Z,101608.31
2023-04-08T02:05:07.701Z,101595.97
2023-04-08T02:05:29.321Z,101610.94
2023-04-08T02:05:52.452Z,101608.28
2023-04-08T02:06:14.282Z,101610.94
2023-04-08T02:06:37.932Z,101611.84
2023-04-08T02:07:01.103Z,101613.63
2023-04-08T02:07:24.325Z,101607.38
2023-04-08T02:07:47.336Z,101606.56
2023-04-08T02:08:09.385Z,101608.22
2023-04-08T02:08:30.971Z,101611.78
2023-04-08T02:08:54.465Z,101606.41
2023-04-08T02:09:16.378Z,101604.75
2023-04-08T02:09:38.151Z,101606.41
2023-04-08T02:10:00.792Z,101605.56
2023-04-08T02:10:22.399Z,101592.44
2023-04-08T02:10:44.010Z,101615.31
2023-04-08T02:11:06.167Z,101594.31
2023-04-08T02:11:30.539Z,101605.50
2023-04-08T02:11:52.177Z,101609.00
2023-04-08T02:12:13.958Z,101609.97
2023-04-08T02:12:35.683Z,101612.59
2023-04-08T02:12:59.346Z,101616.97
2023-04-08T02:13:21.084Z,101584.56
2023-04-08T02:13:42.727Z,101608.19
2023-04-08T02:14:04.497Z,101608.19
2023-04-08T02:14:27.231Z,101599.44
2023-04-08T02:14:50.805Z,101612.63
2023-04-08T02:15:13.842Z,101608.16
2023-04-08T02:15:38.819Z,101604.59
2023-04-08T02:16:07.910Z,101603.72
2023-04-08T02:16:34.030Z,101613.53
2023-04-08T02:17:02.372Z,101610.06
2023-04-08T02:17:31.663Z,101610.13
2023-04-08T02:17:57.434Z,101613.66
2023-04-08T02:18:24.874Z,101611.84
2023-04-08T02:18:55.435Z,101607.53
2023-04-08T02:19:24.621Z,101608.31
2023-04-08T02:19:53.620Z,101607.44
2023-04-08T02:20:18.966Z,101615.38
2023-04-08T02:20:47.820Z,101612.72
2023-04-08T02:21:14.692Z,101611.84
2023-04-08T02:21:44.734Z,101592.56
2023-04-08T02:22:10.753Z,101608.28
2023-04-08T02:22:39.624Z,101602.13
2023-04-08T02:23:08.646Z,101597.88
2023-04-08T02:23:35.510Z,101605.56
2023-04-08T02:24:00.170Z,101613.56
2023-04-08T02:24:22.920Z,101601.31
2023-04-08T02:24:47.047Z,101614.53
2023-04-08T02:25:13.740Z,101605.69
2023-04-08T02:25:38.478Z,101611.94
2023-04-08T02:26:03.871Z,101611.94
2023-04-08T02:26:26.536Z,101608.47
2023-04-08T02:26:55.755Z,101604.00
2023-04-08T02:27:20.286Z,101612.91
2023-04-08T02:27:44.786Z,101616.50
2023-04-08T02:28:10.642Z,101616.53
2023-04-08T02:28:35.557Z,101606.00
2023-04-08T02:28:58.018Z,101604.25
2023-04-08T02:29:20.749Z,101612.97
2023-04-08T02:29:42.884Z,101613.88
2023-04-08T02:30:06.826Z,101618.28
2023-04-08T02:30:29.602Z,101615.56
2023-04-08T02:30:52.924Z,101617.41
2023-04-08T02:31:18.070Z,101607.66
2023-04-08T02:31:42.286Z,101616.38
2023-04-08T02:32:05.430Z,101615.53
2023-04-08T02:32:29.115Z,101612.00
2023-04-08T02:32:54.890Z,101613.84
2023-04-08T02:33:19.549Z,101609.34
2023-04-08T02:33:42.544Z,101612.09
2023-04-08T02:34:05.963Z,101600.66
2023-04-08T02:34:28.819Z,101620.06
2023-04-08T02:34:51.107Z,101621.84
2023-04-08T02:35:14.344Z,101612.91
2023-04-08T02:35:37.181Z,101618.22
2023-04-08T02:36:02.092Z,101613.88
2023-04-08T02:36:27.228Z,101614.00
2023-04-08T02:36:51.096Z,101620.06
2023-04-08T02:37:12.928Z,101618.31
2023-04-08T02:37:34.787Z,101614.75
2023-04-08T02:37:57.397Z,101623.63
2023-04-08T02:38:19.836Z,101620.06
2023-04-08T02:38:41.528Z,101619.16
2023-04-08T02:39:03.930Z,101615.56
2023-04-08T02:39:32.220Z,101607.78
2023-04-08T02:39:53.940Z,101614.72
2023-04-08T02:40:26.309Z,101618.28
2023-04-08T02:40:50.438Z,101613.84
2023-04-08T02:41:12.303Z,101608.63
2023-04-08T02:41:35.045Z,101619.19
2023-04-08T02:41:58.143Z,101619.19
2023-04-08T02:42:19.834Z,101614.81
2023-04-08T02:42:42.565Z,101616.63
2023-04-08T02:43:04.288Z,101616.50
2023-04-08T02:43:31.667Z,101618.34
2023-04-08T02:43:55.489Z,101620.09
2023-04-08T02:44:17.283Z,101611.22
2023-04-08T02:44:38.930Z,101620.94
2023-04-08T02:45:00.565Z,101622.72
2023-04-08T02:45:23.393Z,101623.63
2023-04-08T02:45:46.946Z,101619.19
2023-04-08T02:46:11.679Z,101619.16
2023-04-08T02:46:33.410Z,101620.06
2023-04-08T02:46:57.685Z,101620.88
2023-04-08T02:47:20.338Z,101617.38
2023-04-08T02:47:42.099Z,101618.19
2023-04-08T02:48:05.938Z,101618.22
2023-04-08T02:48:28.004Z,101623.50
2023-04-08T02:48:49.998Z,101625.25
2023-04-08T02:49:12.705Z,101611.94
2023-04-08T02:49:34.443Z,101616.41
2023-04-08T02:49:56.224Z,101620.88
2023-04-08T02:50:17.919Z,101626.19
2023-04-08T02:50:41.307Z,101605.91
2023-04-08T02:51:03.415Z,101607.75
2023-04-08T02:51:25.970Z,101627.09
2023-04-08T02:51:47.580Z,101612.00
2023-04-08T02:52:10.326Z,101621.75
2023-04-08T02:52:31.919Z,101614.66
2023-04-08T02:52:53.525Z,101606.91
2023-04-08T02:53:15.897Z,101620.88
2023-04-08T02:53:37.698Z,101615.53
2023-04-08T02:54:00.261Z,101620.00
2023-04-08T02:54:22.074Z,101620.06
2023-04-08T02:54:43.759Z,101622.78
2023-04-08T02:55:09.717Z,101624.59
2023-04-08T02:55:32.396Z,101610.59
2023-04-08T02:55:53.995Z,101613.06
2023-04-08T02:56:15.635Z,101621.94
2023-04-08T02:56:37.321Z,101618.41
2023-04-08T02:57:01.393Z,101621.97
2023-04-08T02:57:23.153Z,101612.34
2023-04-08T02:57:44.896Z,101622.97
2023-04-08T02:58:06.591Z,101622.06
2023-04-08T02:58:29.288Z,101621.19
2023-04-08T02:58:52.300Z,101618.53
2023-04-08T02:59:14.206Z,101615.88
2023-04-08T02:59:37.745Z,101619.41
2023-04-08T03:00:00.443Z,101624.66
2023-04-08T03:00:22.189Z,101622.97
2023-04-08T03:00:43.850Z,101620.28
2023-04-08T03:01:05.638Z,101617.63
2023-04-08T03:01:28.365Z,101624.69
2023-04-08T03:01:51.366Z,101622.97
2023-04-08T03:02:13.098Z,101622.09
2023-04-08T03:02:35.060Z,101614.97
2023-04-08T03:02:57.984Z,101622.06
2023-04-08T03:03:20.074Z,101628.28
2023-04-08T03:03:41.871Z,101626.44
2023-04-08T03:04:03.853Z,101598.28
2023-04-08T03:04:26.450Z,101620.28
2023-04-08T03:04:48.053Z,101622.06
2023-04-08T03:05:10.158Z,101619.34
2023-04-08T03:05:31.994Z,101620.22
2023-04-08T03:05:54.790Z,101621.97
2023-04-08T03:06:16.630Z,101598.38
2023-04-08T03:06:38.268Z,101613.25
2023-04-08T03:06:59.873Z,101623.75
2023-04-08T03:07:22.561Z,101600.94
2023-04-08T03:07:44.194Z,101621.13
2023-04-08T03:08:06.809Z,101614.03
2023-04-08T03:08:28.529Z,101624.53
2023-04-08T03:08:51.649Z,101620.13
2023-04-08T03:09:13.490Z,101606.22
2023-04-08T03:09:35.355Z,101624.59
2023-04-08T03:09:57.208Z,101615.75
2023-04-08T03:10:18.873Z,101621.09
2023-04-08T03:10:41.578Z,101620.19
2023-04-08T03:11:03.233Z,101616.63
2023-04-08T03:11:24.992Z,101617.53
2023-04-08T03:11:52.523Z,101622.84
2023-04-08T03:12:15.605Z,101617.47
2023-04-08T03:12:38.158Z,101624.63
2023-04-08T03:12:59.844Z,101618.44
2023-04-08T03:13:21.479Z,101615.78
2023-04-08T03:13:43.193Z,101619.31
2023-04-08T03:14:05.763Z,101627.25
2023-04-08T03:14:27.353Z,101588.56
2023-04-08T03:14:49.388Z,101608.75
2023-04-08T03:15:11.105Z,101625.44
2023-04-08T03:15:32.839Z,101626.31
2023-04-08T03:15:55.422Z,101625.50
2023-04-08T03:16:17.149Z,101620.22
2023-04-08T03:16:38.809Z,101610.47
2023-04-08T03:17:00.572Z,101618.41
2023-04-08T03:17:23.294Z,101604.47
2023-04-08T03:17:45.032Z,101622.78
2023-04-08T03:18:06.844Z,101629.00
2023-04-08T03:18:28.435Z,101629.06
2023-04-08T03:18:51.664Z,101622.84
2023-04-08T03:19:13.499Z,101625.44
2023-04-08T03:19:35.370Z,101622.78
2023-04-08T03:19:56.955Z,101628.13
2023-04-08T03:20:19.464Z,101623.66
2023-04-08T03:20:41.612Z,101628.13
2023-04-08T03:21:03.421Z,101565.88
2023-04-08T03:21:25.106Z,101626.31
2023-04-08T03:21:47.706Z,101622.75
2023-04-08T03:22:10.190Z,101595.69
2023-04-08T03:22:32.025Z,101610.53
2023-04-08T03:22:53.681Z,101617.44
2023-04-08T03:23:15.406Z,101618.31
2023-04-08T03:23:38.041Z,101623.63
2023-04-08T03:23:59.836Z,101620.88
2023-04-08T03:24:21.574Z,101623.63
2023-04-08T03:24:43.131Z,101616.53
2023-04-08T03:25:06.490Z,101618.31
2023-04-08T03:25:29.428Z,101595.50
2023-04-08T03:25:51.365Z,101621.94
2023-04-08T03:26:13.163Z,101625.50
2023-04-08T03:26:36.252Z,101621.97
2023-04-08T03:26:58.089Z,101621.06
2023-04-08T03:27:21.213Z,101625.56
2023-04-08T03:27:42.846Z,101616.63
2023-04-08T03:28:04.810Z,101609.69
2023-04-08T03:28:27.649Z,101617.69
2023-04-08T03:28:49.809Z,101622.00
2023-04-08T03:29:11.895Z,101624.66
2023-04-08T03:29:33.849Z,101629.94
2023-04-08T03:29:57.882Z,101628.19
2023-04-08T03:30:19.685Z,101625.50
2023-04-08T03:30:41.495Z,101624.53
2023-04-08T03:31:03.647Z,101626.31
2023-04-08T03:31:26.570Z,101625.44
2023-04-08T03:31:48.234Z,101619.34
2023-04-08T03:32:09.916Z,101622.75
2023-04-08T03:32:31.534Z,101629.06
2023-04-08T03:32:54.210Z,101629.88
2023-04-08T03:33:16.187Z,101622.00
2023-04-08T03:33:37.834Z,101620.97
2023-04-08T03:33:59.458Z,101629.00
2023-04-08T03:34:23.239Z,101621.97
2023-04-08T03:34:44.836Z,101626.38
2023-04-08T03:35:07.051Z,101627.25
2023-04-08T03:35:28.827Z,101632.53
2023-04-08T03:35:51.434Z,101626.38
2023-04-08T03:36:14.294Z,101628.09
2023-04-08T03:36:36.060Z,101625.53
2023-04-08T03:36:57.675Z,101636.06
2023-04-08T03:37:19.477Z,101629.84
2023-04-08T03:37:42.059Z,101626.31
2023-04-08T03:38:03.802Z,101627.22
2023-04-08T03:38:25.820Z,101632.50
2023-04-08T03:38:47.663Z,101629.88
2023-04-08T03:39:10.419Z,101630.78
2023-04-08T03:39:32.025Z,101635.19
2023-04-08T03:39:54.973Z,101635.25
2023-04-08T03:40:17.106Z,101622.97
2023-04-08T03:40:39.936Z,101635.28
2023-04-08T03:41:01.609Z,101629.94
2023-04-08T03:41:23.309Z,101631.72
2023-04-08T03:41:45.072Z,101629.94
2023-04-08T03:42:06.707Z,101634.31
2023-04-08T03:42:30.683Z,101629.94
2023-04-08T03:42:52.411Z,101632.53
2023-04-08T03:43:14.347Z,101634.31
2023-04-08T03:43:38.041Z,101635.16
2023-04-08T03:44:01.098Z,101631.63
2023-04-08T03:44:22.788Z,101622.00
2023-04-08T03:44:44.409Z,101625.63
2023-04-08T03:45:08.107Z,101629.94
2023-04-08T03:45:29.756Z,101636.19
2023-04-08T03:45:51.379Z,101629.09
2023-04-08T03:46:13.042Z,101632.66
2023-04-08T03:46:35.725Z,101637.03
2023-04-08T03:46:57.470Z,101631.72
2023-04-08T03:47:19.124Z,101626.44
2023-04-08T03:47:42.249Z,101615.06
2023-04-08T03:48:04.139Z,101633.53
2023-04-08T03:48:25.818Z,101624.75
2023-04-08T03:48:47.535Z,101630.06
2023-04-08T03:49:10.370Z,101637.16
2023-04-08T03:49:32.005Z,101633.53
2023-04-08T03:49:54.434Z,101631.81
2023-04-08T03:50:16.187Z,101634.44
2023-04-08T03:50:37.889Z,101640.59
2023-04-08T03:51:00.664Z,101628.19
2023-04-08T03:51:22.355Z,101637.97
2023-04-08T03:51:44.033Z,101631.72
2023-04-08T03:52:05.963Z,101638.75
2023-04-08T03:52:28.587Z,101638.81
2023-04-08T03:52:50.473Z,101637.09
2023-04-08T03:53:12.882Z,101635.38
2023-04-08T03:53:34.430Z,101634.44
2023-04-08T03:53:56.107Z,101631.75
2023-04-08T03:54:18.860Z,101634.50
2023-04-08T03:54:40.713Z,101637.16
2023-04-08T03:55:02.497Z,101636.25
2023-04-08T03:55:24.215Z,101630.94
2023-04-08T03:55:45.931Z,101617.00
2023-04-08T03:56:08.953Z,101638.00
2023-04-08T03:56:30.557Z,101637.97
2023-04-08T03:56:52.223Z,101636.19
2023-04-08T03:57:13.790Z,101631.84
2023-04-08T03:57:36.685Z,101631.88
2023-04-08T03:57:59.290Z,101628.31
2023-04-08T03:58:20.923Z,101638.06
2023-04-08T03:58:42.477Z,101632.75
2023-04-08T03:59:04.089Z,101646.06
2023-04-08T03:59:26.709Z,101630.97
2023-04-08T03:59:48.344Z,101637.19
2023-04-08T04:00:11.244Z,101631.00
2023-04-08T04:00:36.028Z,101636.31
2023-04-08T04:00:58.687Z,101633.66
2023-04-08T04:01:20.365Z,101637.16
2023-04-08T04:01:42.169Z,101633.63
2023-04-08T04:02:04.052Z,101633.59
2023-04-08T04:02:26.860Z,101634.44
2023-04-08T04:02:48.628Z,101631.81
2023-04-08T04:03:12.959Z,101618.59
2023-04-08T04:03:34.943Z,101635.31
2023-04-08T04:03:57.919Z,101627.31
2023-04-08T04:04:19.965Z,101630.88
2023-04-08T04:04:41.881Z,101628.19
2023-04-08T04:05:04.234Z,101629.94
2023-04-08T04:05:26.071Z,101630.84
2023-04-08T04:05:48.622Z,101633.53
2023-04-08T04:06:10.716Z,101632.66
2023-04-08T04:06:32.374Z,101630.00
2023-04-08T04:06:56.041Z,101582.84
2023-04-08T04:07:17.732Z,101625.66
2023-04-08T04:07:39.423Z,101637.06
2023-04-08T04:08:01.518Z,101629.06
2023-04-08T04:08:24.426Z,101635.31
2023-04-08T04:08:46.415Z,101637.09
2023-04-08T04:09:08.151Z,101630.84
2023-04-08T04:09:29.912Z,101635.31
2023-04-08T04:09:56.065Z,101630.00
2023-04-08T04:10:17.886Z,101633.59
2023-04-08T04:10:39.532Z,101628.28
2023-04-08T04:11:01.152Z,101636.25
2023-04-08T04:11:22.816Z,101616.91
2023-04-08T04:11:45.479Z,101634.50
2023-04-08T04:12:07.053Z,101637.16
2023-04-08T04:12:28.694Z,101632.66
2023-04-08T04:12:52.161Z,101624.75
2023-04-08T04:13:14.825Z,101617.78
2023-04-08T04:13:36.414Z,101627.34
2023-04-08T04:13:58.030Z,101630.94
2023-04-08T04:14:19.625Z,101619.44
2023-04-08T04:14:41.249Z,101628.22
2023-04-08T04:15:04.200Z,101632.66
2023-04-08T04:15:25.958Z,101633.59
2023-04-08T04:15:47.828Z,101635.31
2023-04-08T04:16:09.549Z,101632.63
2023-04-08T04:16:33.022Z,101629.19
2023-04-08T04:16:55.880Z,101636.19
2023-04-08T04:17:17.569Z,101625.63
2023-04-08T04:17:39.216Z,101634.44
2023-04-08T04:18:03.244Z,101632.63
2023-04-08T04:18:25.852Z,101637.06
2023-04-08T04:18:47.591Z,101637.06
2023-04-08T04:19:09.234Z,101637.91
2023-04-08T04:19:31.367Z,101637.03
2023-04-08T04:19:52.942Z,101637.03
2023-04-08T04:20:16.167Z,101636.97
2023-04-08T04:20:40.085Z,101639.63
2023-04-08T04:21:05.767Z,101639.63
2023-04-08T04:21:27.478Z,101639.63
2023-04-08T04:21:50.070Z,101638.75
2023-04-08T04:22:11.802Z,101638.75
2023-04-08T04:22:33.498Z,101634.44
2023-04-08T04:22:55.136Z,101640.56
2023-04-08T04:23:16.833Z,101638.81
2023-04-08T04:23:39.460Z,101640.56
2023-04-08T04:24:01.110Z,101638.81
2023-04-08T04:24:22.754Z,101635.25
2023-04-08T04:24:47.266Z,101637.84